sensor_id;sensor_type;location;lat;lon;timestamp;pressure;altitude;pressure_sealevel;temperature;humidity
12879;BME280;20617;49.476;10.986;2023-06-14T00:01:53;97823.75;;;19.23;80.01
12879;BME280;20617;49.476;10.986;2023-06-14T00:03:58;97824.13;;;19.19;80.29
12879;BME280;20617;49.476;10.986;2023-06-14T00:06:03;97820.72;;;19.07;82.71
12879;BME280;20617;49.476;10.986;2023-06-14T00:08:09;97817.63;;;19.02;82.91
12879;BME280;20617;49.476;10.986;2023-06-14T00:10:14;97823.75;;;19.03;83.17
12879;BME280;20617;49.476;10.986;2023-06-14T00:12:22;97820.16;;;19.04;83.74
12879;BME280;20617;49.476;10.986;2023-06-14T00:14:28;97815.13;;;19.00;83.86
12879;BME280;20617;49.476;10.986;2023-06-14T00:16:33;97821.38;;;18.99;84.16
12879;BME280;20617;49.476;10.986;2023-06-14T00:18:39;97816.94;;;19.00;84.46
12879;BME280;20617;49.476;10.986;2023-06-14T00:20:44;97816.28;;;18.87;86.07
12879;BME280;20617;49.476;10.986;2023-06-14T00:22:49;97811.84;;;18.87;86.04
12879;BME280;20617;49.476;10.986;2023-06-14T00:24:54;97809.34;;;18.86;86.64
12879;BME280;20617;49.476;10.986;2023-06-14T00:26:59;97810.94;;;18.77;87.48
12879;BME280;20617;49.476;10.986;2023-06-14T00:29:06;97810.59;;;18.70;88.52
12879;BME280;20617;49.476;10.986;2023-06-14T00:31:11;97807.94;;;18.70;88.04
12879;BME280;20617;49.476;10.986;2023-06-14T00:33:16;97803.63;;;18.69;88.94
12879;BME280;20617;49.476;10.986;2023-06-14T00:35:21;97804.59;;;18.68;88.57
12879;BME280;20617;49.476;10.986;2023-06-14T00:37:27;97805.16;;;18.72;88.56
12879;BME280;20617;49.476;10.986;2023-06-14T00:39:32;97802.19;;;18.76;88.25
12879;BME280;20617;49.476;10.986;2023-06-14T00:41:37;97805.25;;;18.82;88.24
12879;BME280;20617;49.476;10.986;2023-06-14T00:43:42;97796.41;;;18.83;88.06
12879;BME280;20617;49.476;10.986;2023-06-14T00:45:49;97801.34;;;18.76;89.77
12879;BME280;20617;49.476;10.986;2023-06-14T00:47:55;97801.69;;;18.71;91.77
12879;BME280;20617;49.476;10.986;2023-06-14T00:50:01;97803.13;;;18.75;91.09
12879;BME280;20617;49.476;10.986;2023-06-14T00:52:07;97809.13;;;18.77;92.31
12879;BME280;20617;49.476;10.986;2023-06-14T00:54:14;97808.31;;;18.77;92.17
12879;BME280;20617;49.476;10.986;2023-06-14T00:56:19;97809.38;;;18.74;92.27
12879;BME280;20617;49.476;10.986;2023-06-14T00:58:26;97810.09;;;18.76;91.33
12879;BME280;20617;49.476;10.986;2023-06-14T01:00:31;97810.34;;;18.73;92.13
12879;BME280;20617;49.476;10.986;2023-06-14T01:02:39;97810.81;;;18.67;92.50
12879;BME280;20617;49.476;10.986;2023-06-14T01:04:46;97808.41;;;18.64;92.74
12879;BME280;20617;49.476;10.986;2023-06-14T01:06:57;97823.81;;;18.59;92.79
12879;BME280;20617;49.476;10.986;2023-06-14T01:09:12;97813.63;;;18.54;93.01
12879;BME280;20617;49.476;10.986;2023-06-14T01:11:24;97812.53;;;18.57;92.19
12879;BME280;20617;49.476;10.986;2023-06-14T01:13:33;97816.41;;;18.53;92.72
12879;BME280;20617;49.476;10.986;2023-06-14T01:15:39;97809.69;;;18.49;92.47
12879;BME280;20617;49.476;10.986;2023-06-14T01:17:49;97815.34;;;18.44;93.27
12879;BME280;20617;49.476;10.986;2023-06-14T01:19:56;97808.53;;;18.42;93.21
12879;BME280;20617;49.476;10.986;2023-06-14T01:22:02;97814.50;;;18.44;93.17
12879;BME280;20617;49.476;10.986;2023-06-14T01:24:10;97815.09;;;18.47;93.39
12879;BME280;20617;49.476;10.986;2023-06-14T01:26:15;97808.97;;;18.47;93.39
12879;BME280;20617;49.476;10.986;2023-06-14T01:28:21;97818.81;;;18.45;93.68
12879;BME280;20617;49.476;10.986;2023-06-14T01:30:28;97816.94;;;18.36;95.17
12879;BME280;20617;49.476;10.986;2023-06-14T01:32:35;97815.75;;;18.28;96.20
12879;BME280;20617;49.476;10.986;2023-06-14T01:34:41;97819.84;;;18.21;97.11
12879;BME280;20617;49.476;10.986;2023-06-14T01:36:45;97817.69;;;18.15;97.71
12879;BME280;20617;49.476;10.986;2023-06-14T01:38:52;97825.38;;;18.07;97.95
12879;BME280;20617;49.476;10.986;2023-06-14T01:41:01;97816.38;;;18.09;97.39
12879;BME280;20617;49.476;10.986;2023-06-14T01:43:07;97825.81;;;18.12;97.66
12879;BME280;20617;49.476;10.986;2023-06-14T01:45:12;97817.81;;;18.14;97.44
12879;BME280;20617;49.476;10.986;2023-06-14T01:47:17;97819.97;;;18.08;98.28
12879;BME280;20617;49.476;10.986;2023-06-14T01:49:23;97815.78;;;18.06;98.12
12879;BME280;20617;49.476;10.986;2023-06-14T01:51:28;97820.22;;;18.05;97.86
12879;BME280;20617;49.476;10.986;2023-06-14T01:53:33;97827.38;;;18.03;99.65
12879;BME280;20617;49.476;10.986;2023-06-14T01:55:37;97816.28;;;17.88;100.00
12879;BME280;20617;49.476;10.986;2023-06-14T01:57:48;97817.97;;;17.90;100.00
12879;BME280;20617;49.476;10.986;2023-06-14T01:59:53;97818.91;;;17.88;100.00
12879;BME280;20617;49.476;10.986;2023-06-14T02:01:59;97816.88;;;17.92;100.00
12879;BME280;20617;49.476;10.986;2023-06-14T02:04:06;97822.03;;;17.94;100.00
12879;BME280;20617;49.476;10.986;2023-06-14T02:06:12;97823.94;;;17.92;100.00
12879;BME280;20617;49.476;10.986;2023-06-14T02:08:18;97825.50;;;17.83;100.00
12879;BME280;20617;49.476;10.986;2023-06-14T02:10:22;97827.66;;;17.78;100.00
12879;BME280;20617;49.476;10.986;2023-06-14T02:12:29;97830.31;;;17.78;100.00
12879;BME280;20617;49.476;10.986;2023-06-14T02:14:36;97828.94;;;17.72;100.00
12879;BME280;20617;49.476;10.986;2023-06-14T02:16:41;97826.91;;;17.64;100.00
12879;BME280;20617;49.476;10.986;2023-06-14T02:18:51;97821.88;;;17.61;100.00
12879;BME280;20617;49.476;10.986;2023-06-14T02:20:58;97823.19;;;17.56;100.00
12879;BME280;20617;49.476;10.986;2023-06-14T02:23:03;97830.34;;;17.54;100.00
12879;BME280;20617;49.476;10.986;2023-06-14T02:25:09;97828.56;;;17.43;100.00
12879;BME280;20617;49.476;10.986;2023-06-14T02:27:15;97823.91;;;17.35;100.00
12879;BME280;20617;49.476;10.986;2023-06-14T02:29:20;97830.69;;;17.27;100.00
12879;BME280;20617;49.476;10.986;2023-06-14T02:31:27;97827.69;;;17.20;100.00
12879;BME280;20617;49.476;10.986;2023-06-14T02:33:33;97830.06;;;17.12;100.00
12879;BME280;20617;49.476;10.986;2023-06-14T02:35:38;97826.94;;;17.07;100.00
12879;BME280;20617;49.476;10.986;2023-06-14T02:37:43;97827.91;;;17.06;100.00
12879;BME280;20617;49.476;10.986;2023-06-14T02:39:49;97830.41;;;17.07;100.00
12879;BME280;20617;49.476;10.986;2023-06-14T02:41:54;97834.00;;;17.06;100.00
12879;BME280;20617;49.476;10.986;2023-06-14T02:43:58;97837.91;;;17.01;100.00
12879;BME280;20617;49.476;10.986;2023-06-14T02:46:04;97832.53;;;16.91;100.00
12879;BME280;20617;49.476;10.986;2023-06-14T02:48:11;97838.63;;;16.91;100.00
12879;BME280;20617;49.476;10.986;2023-06-14T02:50:16;97839.69;;;16.89;100.00
12879;BME280;20617;49.476;10.986;2023-06-14T02:52:23;97840.63;;;16.88;100.00
12879;BME280;20617;49.476;10.986;2023-06-14T02:54:28;97840.03;;;16.84;100.00
12879;BME280;20617;49.476;10.986;2023-06-14T02:56:33;97845.28;;;16.84;100.00
12879;BME280;20617;49.476;10.986;2023-06-14T02:58:38;97844.34;;;16.85;100.00
12879;BME280;20617;49.476;10.986;2023-06-14T03:00:44;97845.66;;;16.91;100.00
12879;BME280;20617;49.476;10.986;2023-06-14T03:02:49;97845.91;;;16.88;100.00
12879;BME280;20617;49.476;10.986;2023-06-14T03:04:59;97844.09;;;16.88;100.00
12879;BME280;20617;49.476;10.986;2023-06-14T03:07:05;97853.78;;;16.88;100.00
12879;BME280;20617;49.476;10.986;2023-06-14T03:09:14;97854.03;;;16.85;100.00
12879;BME280;20617;49.476;10.986;2023-06-14T03:11:19;97847.66;;;16.76;100.00
12879;BME280;20617;49.476;10.986;2023-06-14T03:13:24;97853.09;;;16.73;100.00
12879;BME280;20617;49.476;10.986;2023-06-14T03:15:34;97857.41;;;16.74;100.00
12879;BME280;20617;49.476;10.986;2023-06-14T03:17:40;97857.63;;;16.71;100.00
12879;BME280;20617;49.476;10.986;2023-06-14T03:19:50;97853.56;;;16.67;100.00
12879;BME280;20617;49.476;10.986;2023-06-14T03:21:57;97858.84;;;16.54;100.00
12879;BME280;20617;49.476;10.986;2023-06-14T03:24:05;97858.47;;;16.47;100.00
12879;BME280;20617;49.476;10.986;2023-06-14T03:26:10;97858.91;;;16.41;100.00
12879;BME280;20617;49.476;10.986;2023-06-14T03:28:17;97867.72;;;16.40;100.00
12879;BME280;20617;49.476;10.986;2023-06-14T03:30:23;97860.06;;;16.37;100.00
12879;BME280;20617;49.476;10.986;2023-06-14T03:32:27;97863.13;;;16.31;100.00
12879;BME280;20617;49.476;10.986;2023-06-14T03:34:36;97870.19;;;16.30;100.00
12879;BME280;20617;49.476;10.986;2023-06-14T03:36:43;97874.69;;;16.28;100.00
12879;BME280;20617;49.476;10.986;2023-06-14T03:38:51;97871.84;;;16.32;100.00
12879;BME280;20617;49.476;10.986;2023-06-14T03:40:57;97870.56;;;16.37;100.00
12879;BME280;20617;49.476;10.986;2023-06-14T03:43:03;97875.59;;;16.40;100.00
12879;BME280;20617;49.476;10.986;2023-06-14T03:45:08;97870.88;;;16.45;100.00
12879;BME280;20617;49.476;10.986;2023-06-14T03:47:13;97872.66;;;16.45;100.00
12879;BME280;20617;49.476;10.986;2023-06-14T03:49:18;97876.03;;;16.47;100.00
12879;BME280;20617;49.476;10.986;2023-06-14T03:51:23;97881.72;;;16.41;100.00
12879;BME280;20617;49.476;10.986;2023-06-14T03:53:28;97888.97;;;16.37;100.00
12879;BME280;20617;49.476;10.986;2023-06-14T03:55:36;97894.22;;;16.37;100.00
12879;BME280;20617;49.476;10.986;2023-06-14T03:58:08;97886.47;;;16.36;100.00
12879;BME280;20617;49.476;10.986;2023-06-14T04:00:16;97895.16;;;16.36;100.00
12879;BME280;20617;49.476;10.986;2023-06-14T04:02:21;97901.25;;;16.37;100.00
12879;BME280;20617;49.476;10.986;2023-06-14T04:04:27;97904.50;;;16.40;100.00
12879;BME280;20617;49.476;10.986;2023-06-14T04:06:33;97901.88;;;16.40;100.00
12879;BME280;20617;49.476;10.986;2023-06-14T04:08:39;97897.69;;;16.38;100.00
12879;BME280;20617;49.476;10.986;2023-06-14T04:10:47;97901.09;;;16.27;100.00
12879;BME280;20617;49.476;10.986;2023-06-14T04:12:52;97899.06;;;16.30;100.00
12879;BME280;20617;49.476;10.986;2023-06-14T04:14:57;97914.13;;;16.16;100.00
12879;BME280;20617;49.476;10.986;2023-06-14T04:17:22;97906.88;;;16.19;100.00
12879;BME280;20617;49.476;10.986;2023-06-14T04:19:28;97908.66;;;16.19;100.00
12879;BME280;20617;49.476;10.986;2023-06-14T04:21:33;97918.13;;;16.21;100.00
12879;BME280;20617;49.476;10.986;2023-06-14T04:23:39;97912.66;;;16.24;100.00
12879;BME280;20617;49.476;10.986;2023-06-14T04:25:50;97916.22;;;16.23;100.00
12879;BME280;20617;49.476;10.986;2023-06-14T04:27:57;97914.31;;;16.25;100.00
12879;BME280;20617;49.476;10.986;2023-06-14T04:30:02;97913.47;;;16.25;100.00
12879;BME280;20617;49.476;10.986;2023-06-14T04:32:12;97920.22;;;16.29;100.00
12879;BME280;20617;49.476;10.986;2023-06-14T04:34:17;97915.78;;;16.29;100.00
12879;BME280;20617;49.476;10.986;2023-06-14T04:36:29;97916.41;;;16.33;100.00
12879;BME280;20617;49.476;10.986;2023-06-14T04:38:36;97920.09;;;16.30;100.00
12879;BME280;20617;49.476;10.986;2023-06-14T04:40:42;97924.16;;;16.35;100.00
12879;BME280;20617;49.476;10.986;2023-06-14T04:42:53;97919.13;;;16.44;100.00
12879;BME280;20617;49.476;10.986;2023-06-14T04:44:59;97922.25;;;16.49;100.00
12879;BME280;20617;49.476;10.986;2023-06-14T04:47:05;97924.66;;;16.52;100.00
12879;BME280;20617;49.476;10.986;2023-06-14T04:49:10;97926.44;;;16.52;100.00
12879;BME280;20617;49.476;10.986;2023-06-14T04:51:17;97922.66;;;16.56;100.00
12879;BME280;20617;49.476;10.986;2023-06-14T04:53:23;97933.16;;;16.56;100.00
12879;BME280;20617;49.476;10.986;2023-06-14T04:55:31;97928.75;;;16.57;100.00
12879;BME280;20617;49.476;10.986;2023-06-14T04:57:39;97933.91;;;16.58;100.00
12879;BME280;20617;49.476;10.986;2023-06-14T04:59:46;97928.91;;;16.66;100.00
12879;BME280;20617;49.476;10.986;2023-06-14T05:01:59;97937.00;;;16.63;100.00
12879;BME280;20617;49.476;10.986;2023-06-14T05:04:04;97935.19;;;16.52;100.00
12879;BME280;20617;49.476;10.986;2023-06-14T05:06:09;97935.50;;;16.48;100.00
12879;BME280;20617;49.476;10.986;2023-06-14T05:08:14;97938.25;;;16.46;100.00
12879;BME280;20617;49.476;10.986;2023-06-14T05:10:20;97935.19;;;16.52;100.00
12879;BME280;20617;49.476;10.986;2023-06-14T05:12:25;97933.59;;;16.50;100.00
12879;BME280;20617;49.476;10.986;2023-06-14T05:14:32;97935.06;;;16.54;100.00
12879;BME280;20617;49.476;10.986;2023-06-14T05:16:40;97936.78;;;16.66;100.00
12879;BME280;20617;49.476;10.986;2023-06-14T05:18:46;97931.00;;;16.74;100.00
12879;BME280;20617;49.476;10.986;2023-06-14T05:20:51;97937.03;;;16.76;100.00
12879;BME280;20617;49.476;10.986;2023-06-14T05:22:56;97935.50;;;16.85;100.00
12879;BME280;20617;49.476;10.986;2023-06-14T05:25:01;97940.41;;;16.89;100.00
12879;BME280;20617;49.476;10.986;2023-06-14T05:27:06;97939.50;;;16.90;100.00
12879;BME280;20617;49.476;10.986;2023-06-14T05:29:12;97937.69;;;16.91;100.00
12879;BME280;20617;49.476;10.986;2023-06-14T05:31:17;97944.69;;;17.03;100.00
12879;BME280;20617;49.476;10.986;2023-06-14T05:33:25;97950.00;;;17.14;100.00
12879;BME280;20617;49.476;10.986;2023-06-14T05:35:30;97948.56;;;17.22;100.00
12879;BME280;20617;49.476;10.986;2023-06-14T05:37:35;97954.47;;;17.25;100.00
12879;BME280;20617;49.476;10.986;2023-06-14T05:39:40;97941.47;;;17.35;100.00
12879;BME280;20617;49.476;10.986;2023-06-14T05:41:45;97953.81;;;17.46;100.00
12879;BME280;20617;49.476;10.986;2023-06-14T05:43:52;97952.84;;;17.47;100.00
12879;BME280;20617;49.476;10.986;2023-06-14T05:45:57;97953.00;;;17.56;100.00
12879;BME280;20617;49.476;10.986;2023-06-14T05:48:02;97959.25;;;17.67;100.00
12879;BME280;20617;49.476;10.986;2023-06-14T05:50:10;97958.28;;;17.68;100.00
12879;BME280;20617;49.476;10.986;2023-06-14T05:52:15;97965.94;;;17.71;100.00
12879;BME280;20617;49.476;10.986;2023-06-14T05:54:20;97963.91;;;17.74;100.00
12879;BME280;20617;49.476;10.986;2023-06-14T05:56:26;97959.91;;;17.81;100.00
12879;BME280;20617;49.476;10.986;2023-06-14T05:58:30;97960.41;;;17.86;100.00
12879;BME280;20617;49.476;10.986;2023-06-14T06:00:35;97962.81;;;17.90;100.00
12879;BME280;20617;49.476;10.986;2023-06-14T06:02:40;97962.22;;;17.86;100.00
12879;BME280;20617;49.476;10.986;2023-06-14T06:04:46;97965.44;;;18.01;100.00
12879;BME280;20617;49.476;10.986;2023-06-14T06:06:53;97969.28;;;18.19;100.00
12879;BME280;20617;49.476;10.986;2023-06-14T06:08:58;97962.09;;;18.21;100.00
12879;BME280;20617;49.476;10.986;2023-06-14T06:11:04;97972.16;;;18.39;100.00
12879;BME280;20617;49.476;10.986;2023-06-14T06:13:08;97967.72;;;18.50;100.00
12879;BME280;20617;49.476;10.986;2023-06-14T06:15:14;97959.56;;;18.65;100.00
12879;BME280;20617;49.476;10.986;2023-06-14T06:17:19;97956.56;;;18.81;100.00
12879;BME280;20617;49.476;10.986;2023-06-14T06:19:25;97964.56;;;18.90;100.00
12879;BME280;20617;49.476;10.986;2023-06-14T06:21:30;97965.78;;;18.86;100.00
12879;BME280;20617;49.476;10.986;2023-06-14T06:23:38;97959.16;;;18.92;100.00
12879;BME280;20617;49.476;10.986;2023-06-14T06:25:43;97970.84;;;19.10;100.00
12879;BME280;20617;49.476;10.986;2023-06-14T06:27:48;97963.72;;;19.22;100.00
12879;BME280;20617;49.476;10.986;2023-06-14T06:29:53;97969.91;;;19.11;100.00
12879;BME280;20617;49.476;10.986;2023-06-14T06:31:58;97965.22;;;19.15;100.00
12879;BME280;20617;49.476;10.986;2023-06-14T06:34:03;97967.75;;;19.05;100.00
12879;BME280;20617;49.476;10.986;2023-06-14T06:36:08;97968.72;;;19.04;100.00
12879;BME280;20617;49.476;10.986;2023-06-14T06:38:13;97974.44;;;19.20;100.00
12879;BME280;20617;49.476;10.986;2023-06-14T06:40:23;97976.63;;;19.36;100.00
12879;BME280;20617;49.476;10.986;2023-06-14T06:42:28;97981.91;;;19.36;100.00
12879;BME280;20617;49.476;10.986;2023-06-14T06:44:37;97979.56;;;19.22;100.00
12879;BME280;20617;49.476;10.986;2023-06-14T06:46:43;97981.34;;;19.33;100.00
12879;BME280;20617;49.476;10.986;2023-06-14T06:48:48;97976.63;;;19.36;100.00
12879;BME280;20617;49.476;10.986;2023-06-14T06:50:53;97969.75;;;19.45;100.00
12879;BME280;20617;49.476;10.986;2023-06-14T06:52:58;97976.78;;;19.67;100.00
12879;BME280;20617;49.476;10.986;2023-06-14T06:55:04;97985.53;;;19.67;100.00
12879;BME280;20617;49.476;10.986;2023-06-14T06:57:13;97980.25;;;19.67;100.00
12879;BME280;20617;49.476;10.986;2023-06-14T06:59:18;97984.38;;;19.81;100.00
12879;BME280;20617;49.476;10.986;2023-06-14T07:01:23;97984.44;;;19.91;100.00
12879;BME280;20617;49.476;10.986;2023-06-14T07:03:31;97983.91;;;19.97;100.00
12879;BME280;20617;49.476;10.986;2023-06-14T07:05:36;97990.34;;;20.04;100.00
12879;BME280;20617;49.476;10.986;2023-06-14T07:07:41;97986.31;;;20.10;100.00
12879;BME280;20617;49.476;10.986;2023-06-14T07:09:46;97984.47;;;20.01;100.00
12879;BME280;20617;49.476;10.986;2023-06-14T07:11:51;97984.81;;;20.07;100.00
12879;BME280;20617;49.476;10.986;2023-06-14T07:13:58;97990.78;;;20.09;100.00
12879;BME280;20617;49.476;10.986;2023-06-14T07:16:04;97980.22;;;20.09;100.00
12879;BME280;20617;49.476;10.986;2023-06-14T07:18:09;97987.06;;;19.91;100.00
12879;BME280;20617;49.476;10.986;2023-06-14T07:20:17;97981.78;;;19.91;100.00
12879;BME280;20617;49.476;10.986;2023-06-14T07:22:23;97988.34;;;19.97;100.00
12879;BME280;20617;49.476;10.986;2023-06-14T07:24:28;97985.81;;;19.95;100.00
12879;BME280;20617;49.476;10.986;2023-06-14T07:26:33;97988.28;;;20.08;100.00
12879;BME280;20617;49.476;10.986;2023-06-14T07:28:38;97996.81;;;20.21;99.73
12879;BME280;20617;49.476;10.986;2023-06-14T07:30:49;97992.13;;;20.25;98.71
12879;BME280;20617;49.476;10.986;2023-06-14T07:32:54;97991.34;;;20.34;97.24
12879;BME280;20617;49.476;10.986;2023-06-14T07:35:00;97996.66;;;20.44;96.06
12879;BME280;20617;49.476;10.986;2023-06-14T07:37:05;97994.72;;;20.46;96.00
12879;BME280;20617;49.476;10.986;2023-06-14T07:39:10;97995.28;;;20.49;95.82
12879;BME280;20617;49.476;10.986;2023-06-14T07:41:16;97996.00;;;20.51;95.29
12879;BME280;20617;49.476;10.986;2023-06-14T07:43:20;97995.94;;;20.63;94.20
12879;BME280;20617;49.476;10.986;2023-06-14T07:45:25;98003.19;;;20.70;91.51
12879;BME280;20617;49.476;10.986;2023-06-14T07:47:34;98002.22;;;20.71;91.14
12879;BME280;20617;49.476;10.986;2023-06-14T07:49:39;98002.06;;;20.73;91.44
12879;BME280;20617;49.476;10.986;2023-06-14T07:51:44;97994.56;;;20.68;91.59
12879;BME280;20617;49.476;10.986;2023-06-14T07:53:50;98004.44;;;20.76;92.26
12879;BME280;20617;49.476;10.986;2023-06-14T07:55:55;97991.50;;;20.83;89.89
12879;BME280;20617;49.476;10.986;2023-06-14T07:58:00;98000.69;;;20.78;86.71
12879;BME280;20617;49.476;10.986;2023-06-14T08:00:06;98000.31;;;20.83;85.87
12879;BME280;20617;49.476;10.986;2023-06-14T08:02:15;97999.66;;;21.00;84.55
12879;BME280;20617;49.476;10.986;2023-06-14T08:04:22;97998.13;;;20.98;82.63
12879;BME280;20617;49.476;10.986;2023-06-14T08:06:27;97999.88;;;20.88;81.88
12879;BME280;20617;49.476;10.986;2023-06-14T08:08:32;97996.69;;;20.94;83.38
12879;BME280;20617;49.476;10.986;2023-06-14T08:10:37;98008.59;;;21.09;83.98
12879;BME280;20617;49.476;10.986;2023-06-14T08:12:42;98007.28;;;20.94;78.86
12879;BME280;20617;49.476;10.986;2023-06-14T08:14:47;98005.16;;;20.78;80.53
12879;BME280;20617;49.476;10.986;2023-06-14T08:17:09;98011.00;;;20.82;81.77
12879;BME280;20617;49.476;10.986;2023-06-14T08:19:14;98008.25;;;20.83;81.01
12879;BME280;20617;49.476;10.986;2023-06-14T08:21:23;98009.94;;;20.94;80.83
12879;BME280;20617;49.476;10.986;2023-06-14T08:23:31;98006.59;;;21.01;80.88
12879;BME280;20617;49.476;10.986;2023-06-14T08:25:36;98009.09;;;21.03;80.01
12879;BME280;20617;49.476;10.986;2023-06-14T08:27:41;98009.25;;;21.11;82.53
12879;BME280;20617;49.476;10.986;2023-06-14T08:29:46;98006.66;;;21.21;79.42
12879;BME280;20617;49.476;10.986;2023-06-14T08:31:52;98013.09;;;21.38;78.41
12879;BME280;20617;49.476;10.986;2023-06-14T08:33:57;98019.78;;;21.52;74.69
12879;BME280;20617;49.476;10.986;2023-06-14T08:36:03;98020.06;;;21.58;73.31
12879;BME280;20617;49.476;10.986;2023-06-14T08:38:11;98014.91;;;21.57;73.90
12879;BME280;20617;49.476;10.986;2023-06-14T08:40:20;98015.34;;;21.62;74.95
12879;BME280;20617;49.476;10.986;2023-06-14T08:42:26;98016.59;;;21.67;73.14
12879;BME280;20617;49.476;10.986;2023-06-14T08:44:33;98011.28;;;21.67;73.68
12879;BME280;20617;49.476;10.986;2023-06-14T08:46:38;98016.84;;;21.55;75.12
12879;BME280;20617;49.476;10.986;2023-06-14T08:48:43;98017.53;;;21.66;71.74
12879;BME280;20617;49.476;10.986;2023-06-14T08:50:49;98016.97;;;21.73;67.34
12879;BME280;20617;49.476;10.986;2023-06-14T08:52:57;98014.75;;;21.78;66.06
12879;BME280;20617;49.476;10.986;2023-06-14T08:55:08;98007.47;;;21.89;67.04
12879;BME280;20617;49.476;10.986;2023-06-14T08:57:14;98010.69;;;22.03;67.59
12879;BME280;20617;49.476;10.986;2023-06-14T08:59:19;98024.59;;;22.24;66.94
12879;BME280;20617;49.476;10.986;2023-06-14T09:01:25;98017.56;;;22.43;67.45
12879;BME280;20617;49.476;10.986;2023-06-14T09:03:31;98014.13;;;22.60;65.28
12879;BME280;20617;49.476;10.986;2023-06-14T09:05:35;98011.25;;;22.53;66.21
12879;BME280;20617;49.476;10.986;2023-06-14T09:07:40;98013.13;;;22.43;64.37
12879;BME280;20617;49.476;10.986;2023-06-14T09:09:46;98008.63;;;22.44;65.15
12879;BME280;20617;49.476;10.986;2023-06-14T09:12:10;98015.91;;;22.42;66.93
12879;BME280;20617;49.476;10.986;2023-06-14T09:14:15;98010.53;;;22.51;65.62
12879;BME280;20617;49.476;10.986;2023-06-14T09:16:21;98013.13;;;22.43;65.73
12879;BME280;20617;49.476;10.986;2023-06-14T09:18:34;98008.09;;;22.40;65.01
12879;BME280;20617;49.476;10.986;2023-06-14T09:20:40;98018.66;;;22.50;62.25
12879;BME280;20617;49.476;10.986;2023-06-14T09:22:45;98014.31;;;22.58;61.77
12879;BME280;20617;49.476;10.986;2023-06-14T09:24:50;98015.44;;;22.56;60.14
12879;BME280;20617;49.476;10.986;2023-06-14T09:26:55;98018.91;;;22.56;60.22
12879;BME280;20617;49.476;10.986;2023-06-14T09:29:05;98022.69;;;22.54;60.79
12879;BME280;20617;49.476;10.986;2023-06-14T09:31:10;98024.22;;;22.56;61.80
12879;BME280;20617;49.476;10.986;2023-06-14T09:33:17;98018.28;;;22.72;61.67
12879;BME280;20617;49.476;10.986;2023-06-14T09:35:22;98020.75;;;22.83;60.81
12879;BME280;20617;49.476;10.986;2023-06-14T09:37:27;98024.53;;;22.81;58.94
12879;BME280;20617;49.476;10.986;2023-06-14T09:39:33;98027.91;;;22.73;58.76
12879;BME280;20617;49.476;10.986;2023-06-14T09:41:40;98028.81;;;22.64;56.63
12879;BME280;20617;49.476;10.986;2023-06-14T09:43:46;98024.31;;;22.37;57.52
12879;BME280;20617;49.476;10.986;2023-06-14T09:45:54;98020.41;;;22.22;59.80
12879;BME280;20617;49.476;10.986;2023-06-14T09:48:01;98021.69;;;22.18;60.73
12879;BME280;20617;49.476;10.986;2023-06-14T09:50:09;98026.84;;;22.29;60.56
12879;BME280;20617;49.476;10.986;2023-06-14T09:52:16;98027.44;;;22.50;57.53
12879;BME280;20617;49.476;10.986;2023-06-14T09:54:22;98017.16;;;22.75;56.35
12879;BME280;20617;49.476;10.986;2023-06-14T09:56:29;98025.88;;;22.95;54.92
12879;BME280;20617;49.476;10.986;2023-06-14T09:58:36;98022.53;;;22.93;51.99
12879;BME280;20617;49.476;10.986;2023-06-14T10:00:53;98015.16;;;23.14;52.56
12879;BME280;20617;49.476;10.986;2023-06-14T10:03:03;98004.69;;;23.31;50.35
12879;BME280;20617;49.476;10.986;2023-06-14T10:05:12;98009.94;;;23.40;48.14
12879;BME280;20617;49.476;10.986;2023-06-14T10:07:20;98003.78;;;23.58;45.62
12879;BME280;20617;49.476;10.986;2023-06-14T10:09:26;97999.81;;;23.62;44.32
12879;BME280;20617;49.476;10.986;2023-06-14T10:11:35;98006.66;;;23.82;45.25
12879;BME280;20617;49.476;10.986;2023-06-14T10:13:46;98011.69;;;24.11;44.96
12879;BME280;20617;49.476;10.986;2023-06-14T10:16:00;98010.13;;;24.27;44.74
12879;BME280;20617;49.476;10.986;2023-06-14T10:18:14;98011.81;;;24.28;43.91
12879;BME280;20617;49.476;10.986;2023-06-14T10:20:30;98005.22;;;24.14;42.63
12879;BME280;20617;49.476;10.986;2023-06-14T10:22:42;98014.88;;;24.15;43.10
12879;BME280;20617;49.476;10.986;2023-06-14T10:24:49;98014.72;;;24.16;43.22
12879;BME280;20617;49.476;10.986;2023-06-14T10:26:57;98010.53;;;24.14;42.96
12879;BME280;20617;49.476;10.986;2023-06-14T10:29:07;98007.44;;;24.18;43.44
12879;BME280;20617;49.476;10.986;2023-06-14T10:31:15;98014.47;;;24.28;43.14
12879;BME280;20617;49.476;10.986;2023-06-14T10:33:20;98016.03;;;24.38;43.07
12879;BME280;20617;49.476;10.986;2023-06-14T10:35:25;98010.25;;;24.43;42.29
12879;BME280;20617;49.476;10.986;2023-06-14T10:37:30;98009.50;;;24.59;40.99
12879;BME280;20617;49.476;10.986;2023-06-14T10:39:37;98015.84;;;24.66;40.42
12879;BME280;20617;49.476;10.986;2023-06-14T10:41:51;98014.22;;;24.73;40.83
12879;BME280;20617;49.476;10.986;2023-06-14T10:46:34;98009.09;;;24.80;40.54
12879;BME280;20617;49.476;10.986;2023-06-14T10:48:40;98008.63;;;24.84;40.29
12879;BME280;20617;49.476;10.986;2023-06-14T10:50:47;98008.63;;;24.84;39.44
12879;BME280;20617;49.476;10.986;2023-06-14T10:52:52;98010.47;;;24.92;39.45
12879;BME280;20617;49.476;10.986;2023-06-14T10:55:01;98002.00;;;24.97;38.83
12879;BME280;20617;49.476;10.986;2023-06-14T10:57:08;98000.66;;;25.01;38.56
12879;BME280;20617;49.476;10.986;2023-06-14T10:59:12;98000.34;;;25.04;37.86
12879;BME280;20617;49.476;10.986;2023-06-14T11:01:23;98003.84;;;25.04;37.54